Time;durP1;ratioP1;P1;durP2;ratioP2;P2;SDS_P1;SDS_P2;PMS_P1;PMS_P2;Temp;Humidity;BMP_temperature;BMP_pressure;BME280_temperature;BME280_humidity;BME280_pressure;Samples;Min_cycle;Max_cycle;Signal;HPM_P1;HPM_P2
2022/06/12 00:00:12;;;;;;;15.35;3.90;;;13.30;99.90;;;;;;4991585;28;20062;-58
2022/06/12 00:02:37;;;;;;;11.75;2.83;;;13.30;99.90;;;;;;4989774;28;20069;-57
2022/06/12 00:05:04;;;;;;;18.25;2.72;;;13.20;99.90;;;;;;4986544;28;20076;-58
2022/06/12 00:07:30;;;;;;;7.82;2.03;;;13.10;99.90;;;;;;4991347;28;20030;-58
2022/06/12 00:09:56;;;;;;;17.67;3.28;;;13.10;99.90;;;;;;4991429;28;20434;-58
2022/06/12 00:12:22;;;;;;;15.25;2.78;;;13.00;99.90;;;;;;4987050;28;20092;-58
2022/06/12 00:14:48;;;;;;;17.58;3.15;;;12.90;99.90;;;;;;4991796;28;20034;-58
2022/06/12 00:17:14;;;;;;;10.50;2.90;;;12.90;99.90;;;;;;4989772;28;20030;-57
2022/06/12 00:19:43;;;;;;;14.27;3.20;;;12.80;99.90;;;;;;4989584;28;20042;-57
2022/06/12 00:22:08;;;;;;;29.15;20.00;;;12.80;99.90;;;;;;4991603;28;20474;-56
2022/06/12 00:24:35;;;;;;;15.95;2.70;;;12.80;99.90;;;;;;4989206;28;20061;-56
2022/06/12 00:27:03;;;;;;;12.30;3.38;;;12.70;99.90;;;;;;4991120;28;20065;-57
2022/06/12 00:29:32;;;;;;;17.15;3.55;;;12.70;99.90;;;;;;4988323;28;20039;-57
2022/06/12 00:32:12;;;;;;;11.38;2.42;;;12.80;99.90;;;;;;4989941;28;20022;-57
2022/06/12 00:34:47;;;;;;;14.10;3.47;;;12.80;99.90;;;;;;4986292;28;20474;-58
2022/06/12 00:37:14;;;;;;;12.18;3.13;;;12.70;99.90;;;;;;4989769;28;20037;-58
2022/06/12 00:39:41;;;;;;;9.27;2.50;;;12.70;99.90;;;;;;4989609;28;20030;-58
2022/06/12 00:42:18;;;;;;;15.57;3.30;;;12.60;99.90;;;;;;4988365;28;20474;-58
2022/06/12 00:44:44;;;;;;;15.60;2.83;;;12.50;99.90;;;;;;4984376;28;20033;-58
2022/06/12 00:47:16;;;;;;;11.13;2.55;;;12.60;99.90;;;;;;4990843;28;20445;-58
2022/06/12 00:49:46;;;;;;;8.98;2.60;;;12.60;99.90;;;;;;4987623;28;20022;-58
2022/06/12 00:52:19;;;;;;;11.13;2.50;;;12.50;99.90;;;;;;4989731;28;20026;-59
2022/06/12 00:54:49;;;;;;;11.57;3.40;;;12.50;99.90;;;;;;4988026;28;20122;-57
2022/06/12 00:57:17;;;;;;;14.43;3.00;;;12.50;99.90;;;;;;4989808;28;20113;-57
2022/06/12 01:00:07;;;;;;;18.73;3.70;;;12.50;99.90;;;;;;4987715;28;20050;-57
2022/06/12 01:02:34;;;;;;;14.02;3.28;;;12.50;99.90;;;;;;4981254;28;20038;-58
2022/06/12 01:07:53;;;;;;;8.23;2.67;;;12.40;99.90;;;;;;4990814;28;20061;-58
2022/06/12 01:10:23;;;;;;;11.48;3.88;;;12.40;99.90;;;;;;4988393;28;20487;-58
2022/06/12 01:12:54;;;;;;;12.82;2.63;;;12.30;99.90;;;;;;4990161;28;20081;-58
2022/06/12 01:15:29;;;;;;;13.95;3.33;;;12.30;99.90;;;;;;4989095;28;20018;-58
2022/06/12 01:17:56;;;;;;;9.68;3.50;;;12.30;99.90;;;;;;4988818;28;20036;-57
2022/06/12 01:20:27;;;;;;;8.52;2.20;;;12.40;99.90;;;;;;4988888;28;20049;-58
2022/06/12 01:23:17;;;;;;;12.77;2.42;;;12.50;99.90;;;;;;4989149;28;20128;-57
2022/06/12 01:25:55;;;;;;;15.48;3.10;;;12.50;99.90;;;;;;4986707;28;20486;-58
2022/06/12 01:28:37;;;;;;;10.88;2.45;;;12.50;99.90;;;;;;4984081;28;20026;-57
2022/06/12 01:31:09;;;;;;;;;;;12.50;99.90;;;;;;4990188;28;20498;-57
2022/06/12 01:33:53;;;;;;;9.80;2.05;;;12.50;99.90;;;;;;4988058;28;19949;-58
2022/06/12 01:36:26;;;;;;;13.18;2.65;;;12.50;99.90;;;;;;4985606;28;20033;-58
2022/06/12 01:39:05;;;;;;;7.03;2.10;;;12.50;99.90;;;;;;4990350;28;20121;-58
2022/06/12 01:41:41;;;;;;;16.42;2.10;;;12.40;99.90;;;;;;4986491;28;20046;-59
2022/06/12 01:44:19;;;;;;;8.77;2.22;;;12.30;99.90;;;;;;4989323;28;20054;-57
2022/06/12 01:47:03;;;;;;;9.27;2.42;;;12.20;99.90;;;;;;4989255;28;20030;-58
2022/06/12 01:49:44;;;;;;;12.13;2.63;;;12.10;99.90;;;;;;4983523;28;20033;-57
2022/06/12 01:52:36;;;;;;;14.75;4.00;;;12.10;99.90;;;;;;4989867;28;20034;-58
2022/06/12 01:55:20;;;;;;;8.13;2.55;;;12.00;99.90;;;;;;4989742;28;20513;-59
2022/06/12 01:57:59;;;;;;;9.93;2.50;;;12.00;99.90;;;;;;4987526;28;20105;-59
2022/06/12 02:00:26;;;;;;;10.05;2.58;;;12.00;99.90;;;;;;4985085;28;20032;-58
2022/06/12 02:03:15;;;;;;;9.25;2.40;;;11.90;99.90;;;;;;4988687;28;20038;-58
2022/06/12 02:05:55;;;;;;;13.07;2.85;;;11.90;99.90;;;;;;4985095;28;20376;-56
2022/06/12 02:08:28;;;;;;;11.45;3.22;;;11.80;99.90;;;;;;4987801;28;20084;-57
2022/06/12 02:13:11;;;;;;;9.07;2.35;;;11.70;99.90;;;;;;4989485;28;20026;-57
2022/06/12 02:13:53;;;;;;;6.95;2.55;;;11.60;99.90;;;;;;4983381;28;20057;-57
2022/06/12 02:16:29;;;;;;;12.73;2.92;;;11.60;99.90;;;;;;4987029;28;20026;-58
2022/06/12 02:18:58;;;;;;;9.63;2.33;;;11.60;99.90;;;;;;4989799;28;20034;-57
2022/06/12 02:21:26;;;;;;;12.52;2.63;;;11.60;99.90;;;;;;4987454;28;20023;-57
2022/06/12 02:24:01;;;;;;;13.68;2.90;;;11.50;99.90;;;;;;4989008;28;20074;-57
2022/06/12 02:26:38;;;;;;;9.52;2.67;;;11.40;99.90;;;;;;4985183;28;20094;-57
2022/06/12 02:29:11;;;;;;;7.57;3.25;;;11.40;99.90;;;;;;4984767;28;20458;-57
2022/06/12 02:31:43;;;;;;;8.80;2.70;;;11.40;99.90;;;;;;4986395;28;20367;-58
2022/06/12 02:34:22;;;;;;;11.18;3.00;;;11.40;99.90;;;;;;4988695;28;20026;-57
2022/06/12 02:36:53;;;;;;;10.93;2.58;;;11.40;99.90;;;;;;4989491;28;20034;-58
2022/06/12 02:39:23;;;;;;;10.00;2.60;;;11.30;99.90;;;;;;4984890;28;20142;-58
2022/06/12 02:42:11;;;;;;;15.70;3.03;;;11.40;99.90;;;;;;4988300;28;20037;-59
2022/06/12 02:44:40;;;;;;;10.15;3.28;;;11.50;99.90;;;;;;4987315;28;20062;-58
2022/06/12 02:47:12;;;;;;;11.85;2.40;;;11.40;99.90;;;;;;4988857;28;20065;-57
2022/06/12 02:49:39;;;;;;;14.55;3.75;;;11.30;99.90;;;;;;4980371;28;20034;-56
2022/06/12 02:52:33;;;;;;;10.80;2.40;;;11.10;99.90;;;;;;4989458;28;20133;-57
2022/06/12 02:55:05;;;;;;;8.55;1.90;;;11.10;99.90;;;;;;4988712;28;20035;-59
2022/06/12 02:57:53;;;;;;;12.07;2.33;;;11.10;99.90;;;;;;4986891;28;20045;-58
2022/06/12 03:00:39;;;;;;;13.05;3.15;;;11.00;99.90;;;;;;4987350;28;20081;-57
2022/06/12 03:03:12;;;;;;;12.32;2.75;;;11.10;99.90;;;;;;4988521;28;20034;-57
2022/06/12 03:05:42;;;;;;;9.77;2.22;;;11.20;99.90;;;;;;4987184;28;20030;-60
2022/06/12 03:08:15;;;;;;;11.68;2.33;;;11.10;99.90;;;;;;4989097;28;20023;-58
2022/06/12 03:10:55;;;;;;;5.50;2.08;;;11.00;99.90;;;;;;4986111;28;20510;-57
2022/06/12 03:13:25;;;;;;;10.20;2.30;;;10.90;99.90;;;;;;4979403;28;20030;-57
2022/06/12 03:16:08;;;;;;;11.27;2.83;;;10.80;99.90;;;;;;4989246;28;20076;-57
2022/06/12 03:18:38;;;;;;;10.10;2.83;;;10.80;99.90;;;;;;4981092;28;20033;-57
2022/06/12 03:21:15;;;;;;;13.27;4.32;;;10.80;99.90;;;;;;4989031;28;20030;-57
2022/06/12 03:24:23;;;;;;;14.65;2.90;;;10.80;99.90;;;;;;4983908;28;20045;-56
2022/06/12 03:26:57;;;;;;;11.15;2.42;;;10.80;99.90;;;;;;4985792;28;20030;-58
2022/06/12 03:29:46;;;;;;;10.52;3.03;;;10.90;99.90;;;;;;4986327;28;20372;-56
2022/06/12 03:32:19;;;;;;;12.88;2.70;;;11.00;99.90;;;;;;4985298;28;20049;-57
2022/06/12 03:35:22;;;;;;;13.65;3.53;;;11.00;99.90;;;;;;4992767;28;20026;-56
2022/06/12 03:37:50;;;;;;;;;;;11.00;99.90;;;;;;4989670;28;20414;-57
2022/06/12 03:40:57;;;;;;;10.25;2.50;;;11.00;99.90;;;;;;4988975;28;19909;-62
2022/06/12 03:43:22;;;;;;;5.63;2.97;;;11.00;99.90;;;;;;4988027;28;20046;-57
2022/06/12 03:46:02;;;;;;;10.82;2.83;;;11.00;99.90;;;;;;4992387;28;20031;-57
2022/06/12 03:48:41;;;;;;;10.68;2.42;;;10.90;99.90;;;;;;4989893;28;20027;-57
2022/06/12 03:51:14;;;;;;;12.52;2.65;;;10.90;99.90;;;;;;4992413;28;20030;-56
2022/06/12 03:53:58;;;;;;;10.65;2.20;;;10.80;99.90;;;;;;4989686;28;20040;-57
2022/06/12 03:59:21;;;;;;;12.05;2.55;;;10.80;99.90;;;;;;4992295;28;20045;-57
2022/06/12 04:01:50;;;;;;;9.50;1.92;;;10.70;99.90;;;;;;4991878;28;20061;-58
2022/06/12 04:04:18;;;;;;;13.70;3.00;;;10.70;99.90;;;;;;4991740;28;20030;-57
2022/06/12 04:06:45;;;;;;;10.13;2.58;;;10.70;99.90;;;;;;4990894;28;20030;-57
2022/06/12 04:09:18;;;;;;;9.77;2.78;;;10.70;99.90;;;;;;4991362;28;20038;-58
2022/06/12 04:11:57;;;;;;;9.48;2.50;;;10.70;99.90;;;;;;4990426;28;20033;-57
2022/06/12 04:14:31;;;;;;;10.35;2.47;;;10.80;99.90;;;;;;4990169;28;20088;-57
2022/06/12 04:17:00;;;;;;;13.95;3.03;;;10.90;99.90;;;;;;4991746;28;20113;-57
2022/06/12 04:19:28;;;;;;;9.98;2.47;;;10.90;99.90;;;;;;4987134;28;20026;-58
2022/06/12 04:21:59;;;;;;;11.75;2.40;;;10.90;99.90;;;;;;4991090;28;20084;-57
2022/06/12 04:24:46;;;;;;;7.17;2.30;;;10.90;99.90;;;;;;4990034;28;20074;-57
2022/06/12 04:27:21;;;;;;;11.30;2.83;;;10.90;99.90;;;;;;4990757;28;20036;-57
2022/06/12 04:30:01;;;;;;;8.07;2.65;;;10.90;99.90;;;;;;4988272;28;20034;-57
2022/06/12 04:32:29;;;;;;;16.25;3.15;;;10.80;99.90;;;;;;4988283;28;20053;-57
2022/06/12 04:34:55;;;;;;;10.73;2.65;;;10.90;99.90;;;;;;4987951;28;20030;-56
2022/06/12 04:37:30;;;;;;;12.73;2.95;;;10.90;99.90;;;;;;4989830;28;20018;-57
2022/06/12 04:39:58;;;;;;;8.75;2.28;;;10.90;99.90;;;;;;4989231;28;20109;-57
2022/06/12 04:42:26;;;;;;;8.38;2.40;;;10.90;99.90;;;;;;4988826;28;20101;-57
2022/06/12 04:44:53;;;;;;;12.20;2.70;;;10.80;99.90;;;;;;4991888;28;20032;-57
2022/06/12 04:47:23;;;;;;;10.48;3.40;;;10.90;99.90;;;;;;4989240;28;20077;-57
2022/06/12 04:49:49;;;;;;;11.05;2.10;;;11.00;99.90;;;;;;4988940;28;20029;-57
2022/06/12 04:52:16;;;;;;;14.82;3.45;;;11.10;99.90;;;;;;4990605;28;20386;-57
2022/06/12 04:54:43;;;;;;;15.10;2.70;;;11.20;99.90;;;;;;4990426;28;20057;-57
2022/06/12 04:57:11;;;;;;;10.57;2.28;;;11.30;99.90;;;;;;4990876;28;20026;-56
2022/06/12 04:59:37;;;;;;;17.70;3.08;;;11.40;99.90;;;;;;4978139;28;20510;-57
2022/06/12 05:02:03;;;;;;;10.48;3.00;;;11.60;99.90;;;;;;4989036;28;20077;-57
2022/06/12 05:04:30;;;;;;;19.27;3.58;;;11.80;99.90;;;;;;4988874;28;20041;-58
2022/06/12 05:06:56;;;;;;;13.98;2.80;;;12.00;99.90;;;;;;4989769;28;20093;-58
2022/06/12 05:09:26;;;;;;;10.50;2.60;;;12.00;99.90;;;;;;4988920;28;20034;-57
2022/06/12 05:11:53;;;;;;;8.77;2.78;;;12.10;99.90;;;;;;4992272;28;20034;-58
2022/06/12 05:14:19;;;;;;;11.00;2.50;;;12.10;99.90;;;;;;4988824;28;20035;-58
2022/06/12 05:16:55;;;;;;;16.63;2.80;;;12.10;99.90;;;;;;4990293;28;20026;-57
2022/06/12 05:19:23;;;;;;;18.45;4.68;;;12.10;99.90;;;;;;4985776;28;20034;-58
2022/06/12 05:21:49;;;;;;;14.88;3.53;;;12.10;99.90;;;;;;4989986;28;20033;-57
2022/06/12 05:24:15;;;;;;;13.57;2.33;;;12.10;99.90;;;;;;4986724;28;20026;-57
2022/06/12 05:26:43;;;;;;;9.88;2.95;;;12.10;99.90;;;;;;4988863;28;20058;-57
2022/06/12 05:29:24;;;;;;;13.27;3.00;;;12.10;99.90;;;;;;4989669;28;20058;-57
2022/06/12 05:31:51;;;;;;;12.02;2.33;;;12.10;99.90;;;;;;4990564;28;20484;-59
2022/06/12 05:34:17;;;;;;;15.55;2.90;;;12.00;99.90;;;;;;4991634;28;20029;-58
2022/06/12 05:36:44;;;;;;;12.00;2.47;;;12.00;99.90;;;;;;4998461;28;20115;-57
2022/06/12 05:39:11;;;;;;;15.75;2.70;;;12.10;99.90;;;;;;4988158;28;20023;-58
2022/06/12 05:41:37;;;;;;;15.20;3.95;;;12.10;99.90;;;;;;4987499;28;20066;-57
2022/06/12 05:44:04;;;;;;;11.48;2.33;;;12.10;99.90;;;;;;4989078;28;20053;-56
2022/06/12 05:46:29;;;;;;;8.07;2.53;;;12.10;99.90;;;;;;4987075;28;20065;-59
2022/06/12 05:48:55;;;;;;;14.98;3.08;;;12.10;99.90;;;;;;4990397;28;20038;-58
2022/06/12 05:51:21;;;;;;;19.55;2.38;;;12.20;99.90;;;;;;4988100;28;20438;-59
2022/06/12 05:53:47;;;;;;;14.13;2.40;;;12.30;99.90;;;;;;4987719;28;20041;-58
2022/06/12 05:56:17;;;;;;;15.23;2.40;;;12.50;99.90;;;;;;4988690;28;20034;-58
2022/06/12 05:58:43;;;;;;;11.13;2.80;;;12.40;99.90;;;;;;4989018;28;20026;-59
2022/06/12 06:01:12;;;;;;;20.13;2.60;;;12.50;99.90;;;;;;4989945;28;20498;-58
2022/06/12 06:03:38;;;;;;;10.05;2.58;;;12.70;99.90;;;;;;4988060;28;20474;-57
2022/06/12 06:06:13;;;;;;;11.88;3.63;;;12.80;99.90;;;;;;4989796;28;20072;-58
2022/06/12 06:08:39;;;;;;;12.23;3.33;;;12.90;99.90;;;;;;4986711;28;20034;-59
2022/06/12 06:11:06;;;;;;;15.57;2.97;;;13.00;99.90;;;;;;4990073;28;20034;-60
2022/06/12 06:13:32;;;;;;;9.50;2.42;;;13.10;99.90;;;;;;4985556;28;20482;-59
2022/06/12 06:15:58;;;;;;;9.93;2.53;;;13.20;99.90;;;;;;4989855;28;20041;-58
2022/06/12 06:18:25;;;;;;;10.60;2.28;;;13.30;99.90;;;;;;4988931;28;20033;-58
2022/06/12 06:20:51;;;;;;;11.18;2.50;;;13.30;99.90;;;;;;4989513;28;20054;-59
2022/06/12 06:23:17;;;;;;;10.38;2.38;;;13.40;99.90;;;;;;4988736;28;20038;-59
2022/06/12 06:25:42;;;;;;;12.18;2.03;;;13.50;99.90;;;;;;5003880;28;20089;-57
2022/06/12 06:28:11;;;;;;;13.57;2.80;;;13.60;99.90;;;;;;4989342;28;20101;-59
2022/06/12 06:30:37;;;;;;;9.85;2.38;;;13.70;99.90;;;;;;4983252;28;20688;-59
2022/06/12 06:33:03;;;;;;;14.32;2.60;;;13.80;99.90;;;;;;4990241;28;20122;-57
2022/06/12 06:35:29;;;;;;;8.02;1.95;;;13.80;99.90;;;;;;4983837;28;20422;-59
2022/06/12 06:37:55;;;;;;;11.93;2.13;;;13.90;99.90;;;;;;4988752;28;20494;-57
2022/06/12 06:40:24;;;;;;;10.40;1.92;;;14.00;99.90;;;;;;4981135;28;20049;-58
2022/06/12 06:42:50;;;;;;;8.65;1.77;;;14.00;99.90;;;;;;4987161;28;20046;-59
2022/06/12 06:48:03;;;;;;;12.70;2.40;;;14.10;99.90;;;;;;4989590;28;20045;-58
2022/06/12 06:50:30;;;;;;;6.15;2.08;;;14.10;99.90;;;;;;4982815;28;20034;-57
2022/06/12 06:52:55;;;;;;;9.18;1.88;;;14.20;99.90;;;;;;4992474;28;20030;-58
2022/06/12 06:55:21;;;;;;;9.48;2.28;;;14.20;99.90;;;;;;4986846;28;20023;-58
2022/06/12 06:57:49;;;;;;;9.95;2.70;;;14.30;99.90;;;;;;4989736;28;20038;-58
2022/06/12 07:00:19;;;;;;;8.98;2.15;;;14.40;99.90;;;;;;4981641;28;20026;-59
2022/06/12 07:02:45;;;;;;;10.88;2.25;;;14.40;99.90;;;;;;4982678;28;20070;-57
2022/06/12 07:05:10;;;;;;;8.70;2.33;;;14.60;99.90;;;;;;4994539;28;20549;-58
2022/06/12 07:07:37;;;;;;;6.97;1.85;;;14.60;99.90;;;;;;4987393;28;20494;-58
2022/06/12 07:10:07;;;;;;;12.02;2.10;;;14.60;99.90;;;;;;4993379;28;20022;-58
2022/06/12 07:12:33;;;;;;;14.00;2.45;;;14.70;99.90;;;;;;4991499;28;20076;-58
2022/06/12 07:14:59;;;;;;;11.43;2.42;;;14.80;99.90;;;;;;4991323;28;20034;-58
2022/06/12 07:17:25;;;;;;;12.38;2.20;;;14.80;99.90;;;;;;4996020;28;20475;-57
2022/06/12 07:19:50;;;;;;;8.95;2.17;;;14.90;99.90;;;;;;4993199;28;20063;-57
2022/06/12 07:22:16;;;;;;;10.13;2.17;;;15.00;99.90;;;;;;4990591;28;20077;-57
2022/06/12 07:24:42;;;;;;;9.40;1.88;;;15.10;99.90;;;;;;4987920;28;20026;-58
2022/06/12 07:27:08;;;;;;;5.45;2.33;;;15.20;99.90;;;;;;4989318;28;20027;-58
2022/06/12 07:29:34;;;;;;;8.80;2.10;;;15.20;99.90;;;;;;4988273;28;20073;-58
2022/06/12 07:32:00;;;;;;;11.07;2.05;;;15.30;99.90;;;;;;4987659;28;20027;-57
2022/06/12 07:34:26;;;;;;;9.18;2.53;;;15.40;99.90;;;;;;4990680;28;20475;-57
2022/06/12 07:36:53;;;;;;;9.18;2.33;;;15.50;99.90;;;;;;4990068;28;20053;-58
2022/06/12 07:39:28;;;;;;;10.43;2.10;;;15.50;99.90;;;;;;4988579;28;20044;-57
2022/06/12 07:41:54;;;;;;;10.45;2.08;;;15.60;99.90;;;;;;4985870;28;20031;-57
2022/06/12 07:44:24;;;;;;;10.35;1.83;;;15.60;99.90;;;;;;4991785;28;20026;-57
2022/06/12 07:46:52;;;;;;;7.45;1.60;;;15.60;99.90;;;;;;4994326;28;20483;-57
2022/06/12 07:49:19;;;;;;;11.02;2.25;;;15.70;99.90;;;;;;4990754;28;20165;-57
2022/06/12 07:51:46;;;;;;;11.68;2.13;;;15.70;99.90;;;;;;4992236;28;20018;-58
2022/06/12 07:54:12;;;;;;;5.72;1.60;;;15.80;99.90;;;;;;4993028;28;20475;-58
2022/06/12 07:56:38;;;;;;;6.78;2.03;;;15.80;99.90;;;;;;4987924;28;20030;-59
2022/06/12 07:59:06;;;;;;;11.30;1.92;;;15.90;99.90;;;;;;4989867;28;20030;-58
2022/06/12 08:01:32;;;;;;;11.50;2.25;;;15.90;99.90;;;;;;4986097;28;20041;-57
2022/06/12 08:03:57;;;;;;;8.63;2.17;;;16.00;99.90;;;;;;4992013;28;20491;-58
2022/06/12 08:06:24;;;;;;;8.80;1.70;;;16.10;99.90;;;;;;4986322;28;20032;-58
2022/06/12 08:08:51;;;;;;;8.70;1.98;;;16.30;99.90;;;;;;4992528;28;20027;-58
2022/06/12 08:11:18;;;;;;;8.30;1.27;;;16.30;99.90;;;;;;4984527;28;20030;-58
2022/06/12 08:13:43;;;;;;;14.73;2.25;;;16.10;99.90;;;;;;4984456;28;20153;-58
2022/06/12 08:16:10;;;;;;;7.03;1.40;;;16.20;99.90;;;;;;4991051;28;20058;-57
2022/06/12 08:18:36;;;;;;;4.28;1.35;;;16.20;99.90;;;;;;4988879;28;20031;-57
2022/06/12 08:21:06;;;;;;;4.97;1.58;;;16.30;99.90;;;;;;4991375;28;20085;-58
2022/06/12 08:23:38;;;;;;;4.97;1.50;;;16.30;99.90;;;;;;4990296;28;20042;-58
2022/06/12 08:26:07;;;;;;;5.30;1.63;;;16.40;99.90;;;;;;4987575;28;20026;-58
2022/06/12 08:28:48;;;;;;;9.45;2.63;;;16.50;99.90;;;;;;4990044;28;20076;-58
2022/06/12 08:31:19;;;;;;;5.63;1.50;;;16.60;99.90;;;;;;4989763;28;20034;-58
2022/06/12 08:33:47;;;;;;;5.32;1.33;;;16.60;99.90;;;;;;4994520;28;20030;-58
2022/06/12 08:36:16;;;;;;;5.70;1.40;;;16.60;99.90;;;;;;4989769;28;20030;-58
2022/06/12 08:38:43;;;;;;;4.55;1.10;;;16.60;99.90;;;;;;4985618;28;20026;-58
2022/06/12 08:41:19;;;;;;;5.80;1.38;;;16.70;99.90;;;;;;4989225;28;20023;-59
2022/06/12 08:43:57;;;;;;;5.90;1.25;;;16.90;99.90;;;;;;4990423;28;20132;-59
2022/06/12 08:46:32;;;;;;;6.68;1.58;;;16.90;99.90;;;;;;4989552;28;20026;-59
2022/06/12 08:49:06;;;;;;;6.72;1.40;;;16.90;99.90;;;;;;4991459;28;20080;-58
2022/06/12 08:51:41;;;;;;;4.80;1.23;;;17.00;99.90;;;;;;4985298;28;20061;-58
2022/06/12 08:54:14;;;;;;;5.43;1.15;;;17.00;99.90;;;;;;4990358;28;20027;-58
2022/06/12 08:57:03;;;;;;;9.38;1.48;;;17.10;99.90;;;;;;4986537;28;20037;-58
2022/06/12 08:59:38;;;;;;;12.02;1.67;;;17.20;99.90;;;;;;4985066;28;20096;-58
2022/06/12 09:02:11;;;;;;;7.30;1.40;;;17.20;99.90;;;;;;4990845;28;20088;-58
2022/06/12 09:04:37;;;;;;;6.68;1.15;;;17.40;99.90;;;;;;4979170;28;20484;-60
2022/06/12 09:07:10;;;;;;;4.00;1.20;;;17.40;99.90;;;;;;4986590;28;20033;-58
2022/06/12 09:09:54;;;;;;;11.35;1.65;;;17.50;99.90;;;;;;4985018;28;20027;-60
2022/06/12 09:12:35;;;;;;;6.10;1.35;;;17.70;99.90;;;;;;4984437;28;20084;-57
2022/06/12 09:15:04;;;;;;;8.85;1.60;;;17.60;99.90;;;;;;4994456;28;20623;-57
2022/06/12 09:17:36;;;;;;;5.15;1.35;;;17.70;99.90;;;;;;4979531;28;20121;-58
2022/06/12 09:20:08;;;;;;;8.98;1.50;;;17.60;99.90;;;;;;4988827;28;20482;-59
2022/06/12 09:22:45;;;;;;;;;;;17.70;99.90;;;;;;4989183;28;20042;-59
2022/06/12 09:25:26;;;;;;;4.53;1.40;;;17.80;99.90;;;;;;4988207;28;19910;-58
2022/06/12 09:28:25;;;;;;;5.70;1.30;;;18.00;99.90;;;;;;4980267;28;20494;-58
2022/06/12 09:31:36;;;;;;;6.75;1.45;;;18.10;99.90;;;;;;4966834;28;20468;-58
2022/06/12 09:34:42;;;;;;;6.50;1.77;;;18.30;99.90;;;;;;4962666;28;20134;-57
2022/06/12 09:40:40;;;;;;;4.55;1.20;;;18.90;99.90;;;;;;4964031;28;20033;-58
2022/06/12 09:43:20;;;;;;;8.23;1.38;;;19.00;99.90;;;;;;4963611;28;20164;-57
2022/06/12 09:46:25;;;;;;;8.25;1.77;;;19.10;99.90;;;;;;4963102;28;20074;-59
2022/06/12 09:48:56;;;;;;;3.50;1.30;;;19.30;99.90;;;;;;4938046;28;20027;-56
2022/06/12 09:51:24;;;;;;;4.63;1.40;;;19.30;99.90;;;;;;4965851;28;20114;-59
2022/06/12 09:54:20;;;;;;;6.05;1.35;;;19.20;99.90;;;;;;4966599;28;20053;-58
2022/06/12 09:57:01;;;;;;;5.90;1.70;;;19.40;99.90;;;;;;4965213;28;20487;-58
2022/06/12 09:59:41;;;;;;;8.95;1.90;;;19.90;99.80;;;;;;4966775;28;20043;-59
2022/06/12 10:02:33;;;;;;;12.60;1.95;;;19.70;99.90;;;;;;4967586;28;20117;-59
2022/06/12 10:05:26;;;;;;;9.63;2.60;;;19.80;99.90;;;;;;4961479;28;20031;-57
2022/06/12 10:08:10;;;;;;;8.05;2.03;;;19.50;99.90;;;;;;4960963;28;20049;-58
2022/06/12 10:10:45;;;;;;;12.85;2.72;;;19.60;99.90;;;;;;4965596;28;20035;-59
2022/06/12 10:13:16;;;;;;;9.00;2.03;;;19.70;99.90;;;;;;4954398;28;20055;-57
2022/06/12 10:15:50;;;;;;;8.88;2.08;;;19.80;99.90;;;;;;4966276;28;20035;-58
2022/06/12 10:18:48;;;;;;;13.80;1.88;;;19.70;99.90;;;;;;4966479;28;20057;-59
2022/06/12 10:21:21;;;;;;;7.15;1.77;;;19.70;99.90;;;;;;4964706;28;20050;-57
2022/06/12 10:23:47;;;;;;;12.35;2.72;;;19.50;99.90;;;;;;4966640;28;20056;-59
2022/06/12 10:26:27;;;;;;;9.35;2.40;;;19.50;99.90;;;;;;4967497;28;20039;-60
2022/06/12 10:29:24;;;;;;;15.00;2.30;;;19.40;99.90;;;;;;4967466;28;20514;-58
2022/06/12 10:32:02;;;;;;;10.57;2.17;;;19.20;99.90;;;;;;4960470;28;20059;-57
2022/06/12 10:34:33;;;;;;;8.27;2.00;;;19.60;99.90;;;;;;4966766;28;20100;-58
2022/06/12 10:37:28;;;;;;;11.25;2.30;;;19.70;99.90;;;;;;4968290;28;20034;-59
2022/06/12 10:40:06;;;;;;;7.25;2.65;;;19.90;99.90;;;;;;4954507;28;20035;-58
2022/06/12 10:42:47;;;;;;;10.85;1.90;;;19.70;99.90;;;;;;4957164;28;20089;-58
2022/06/12 10:45:33;;;;;;;9.02;2.38;;;19.50;99.90;;;;;;4986536;28;20046;-58
2022/06/12 10:48:02;;;;;;;6.15;1.58;;;19.70;99.90;;;;;;4993536;28;20034;-58
2022/06/12 10:50:35;;;;;;;7.55;1.92;;;20.10;99.90;;;;;;4991842;28;20475;-57
2022/06/12 10:53:10;;;;;;;12.63;2.75;;;20.40;99.90;;;;;;4990939;28;20036;-58
2022/06/12 10:55:41;;;;;;;8.63;2.10;;;20.00;99.90;;;;;;4983677;28;20085;-59
2022/06/12 10:58:34;;;;;;;8.95;2.00;;;20.10;99.90;;;;;;4993305;28;20045;-58
2022/06/12 11:01:10;;;;;;;6.63;2.10;;;20.00;99.90;;;;;;4993890;28;20387;-58
2022/06/12 11:03:43;;;;;;;16.92;2.80;;;19.90;99.90;;;;;;4987729;28;20134;-58
2022/06/12 11:06:19;;;;;;;10.68;2.33;;;20.30;99.90;;;;;;4993574;28;20030;-58
2022/06/12 11:09:14;;;;;;;8.35;2.70;;;20.70;99.90;;;;;;4991135;28;20030;-58
2022/06/12 11:12:04;;;;;;;8.43;1.67;;;20.70;99.90;;;;;;4984450;28;20033;-58
2022/06/12 11:14:52;;;;;;;14.73;2.17;;;21.20;99.90;;;;;;4983008;28;20060;-57
2022/06/12 11:17:41;;;;;;;8.95;2.72;;;21.60;99.90;;;;;;4987260;28;20069;-58
2022/06/12 11:20:24;;;;;;;8.45;1.85;;;21.90;99.90;;;;;;4991817;28;20482;-58
2022/06/12 11:23:04;;;;;;;11.40;2.63;;;21.80;99.90;;;;;;4984670;28;20121;-59
2022/06/12 11:25:30;;;;;;;7.97;1.98;;;22.30;99.90;;;;;;4983096;28;20026;-58
2022/06/12 11:28:18;;;;;;;13.45;2.50;;;22.20;99.70;;;;;;4991905;28;20128;-58
2022/06/12 11:31:00;;;;;;;7.40;2.00;;;22.20;98.90;;;;;;4990633;28;20065;-58
2022/06/12 11:33:51;;;;;;;11.43;2.17;;;21.90;98.20;;;;;;4990475;28;20030;-58
2022/06/12 11:36:21;;;;;;;12.17;2.23;;;22.10;97.60;;;;;;4989331;28;20034;-59
2022/06/12 11:39:16;;;;;;;10.30;2.20;;;22.30;96.90;;;;;;4986520;28;20370;-58
2022/06/12 11:41:53;;;;;;;10.43;1.80;;;22.20;98.70;;;;;;4987820;28;20499;-59
2022/06/12 11:44:28;;;;;;;8.50;2.05;;;21.90;99.90;;;;;;4989249;28;20124;-58
2022/06/12 11:47:16;;;;;;;11.48;2.80;;;21.30;99.90;;;;;;4989911;28;20066;-58
2022/06/12 11:49:58;;;;;;;9.25;2.03;;;21.20;99.90;;;;;;4990287;28;20069;-57
2022/06/12 11:53:02;;;;;;;11.02;2.55;;;21.10;99.90;;;;;;4982981;28;20043;-57
2022/06/12 11:55:52;;;;;;;7.00;1.92;;;21.30;99.90;;;;;;4978700;28;20041;-58
2022/06/12 11:58:41;;;;;;;12.68;2.60;;;20.70;99.90;;;;;;4985973;28;20394;-58
2022/06/12 12:01:13;;;;;;;6.35;2.28;;;21.20;99.90;;;;;;4992104;28;20037;-58
2022/06/12 12:04:10;;;;;;;11.73;2.22;;;21.40;99.90;;;;;;4987509;28;20066;-58
2022/06/12 12:06:48;;;;;;;7.05;1.85;;;21.80;99.60;;;;;;4987317;28;20030;-58
2022/06/12 12:09:41;;;;;;;10.43;2.20;;;22.10;98.50;;;;;;4991445;28;20034;-57
2022/06/12 12:12:20;;;;;;;9.95;2.05;;;21.60;99.50;;;;;;4989576;28;20129;-57
2022/06/12 12:14:48;;;;;;;15.15;2.63;;;22.30;99.00;;;;;;4993128;28;20434;-58
2022/06/12 12:17:31;;;;;;;10.10;2.90;;;22.00;99.90;;;;;;4991395;28;20037;-58
2022/06/12 12:20:00;;;;;;;11.20;2.10;;;22.10;99.50;;;;;;4982590;28;20065;-58
2022/06/12 12:22:48;;;;;;;9.52;3.28;;;22.50;97.50;;;;;;4987239;28;20038;-58
2022/06/12 12:25:22;;;;;;;7.15;2.33;;;23.00;96.00;;;;;;4990007;28;20049;-58
2022/06/12 12:27:55;;;;;;;7.53;2.53;;;22.50;96.90;;;;;;4986632;28;20509;-58
2022/06/12 12:30:26;;;;;;;10.45;2.58;;;22.60;97.20;;;;;;4989601;28;20026;-57
2022/06/12 12:32:56;;;;;;;10.70;3.00;;;22.80;97.40;;;;;;4982459;28;20062;-58
2022/06/12 12:41:19;;;;;;;5.82;1.77;;;22.90;96.40;;;;;;4984372;28;20045;-58
2022/06/12 12:43:52;;;;;;;9.73;2.47;;;22.30;97.60;;;;;;4985306;28;20049;-58
2022/06/12 12:46:19;;;;;;;7.90;2.50;;;22.70;98.30;;;;;;4987997;28;20026;-57
2022/06/12 12:48:47;;;;;;;5.70;1.60;;;22.90;96.80;;;;;;4987543;28;20088;-57
2022/06/12 12:51:36;;;;;;;9.30;2.10;;;22.80;96.20;;;;;;4987707;28;20085;-58
2022/06/12 12:54:15;;;;;;;5.78;1.90;;;22.70;96.10;;;;;;4990576;28;20030;-57
2022/06/12 12:57:01;;;;;;;7.05;1.80;;;22.90;96.30;;;;;;4987085;28;20045;-58
2022/06/12 12:59:36;;;;;;;7.47;2.20;;;22.90;95.30;;;;;;4989013;28;20438;-58
2022/06/12 13:02:28;;;;;;;11.15;2.20;;;23.20;95.50;;;;;;4989705;28;20045;-57
2022/06/12 13:04:57;;;;;;;;;;;24.10;94.00;;;;;;4990312;28;20126;-59
2022/06/12 13:07:41;;;;;;;10.63;2.75;;;23.30;93.80;;;;;;4987296;28;19913;-58
2022/06/12 13:10:15;;;;;;;12.20;2.70;;;24.10;93.20;;;;;;4990654;28;20089;-57
2022/06/12 13:13:13;;;;;;;6.88;2.22;;;24.40;92.50;;;;;;4974947;28;20061;-57
2022/06/12 13:15:48;;;;;;;9.48;1.90;;;24.70;92.10;;;;;;4987414;28;20042;-58
2022/06/12 13:18:35;;;;;;;12.65;3.25;;;24.70;91.50;;;;;;4989222;28;20041;-58
2022/06/12 13:21:37;;;;;;;10.48;2.00;;;25.40;90.70;;;;;;4977814;28;20031;-58
2022/06/12 13:24:33;;;;;;;9.35;1.92;;;24.60;90.80;;;;;;4989453;28;20088;-58
2022/06/12 13:27:20;;;;;;;7.90;1.85;;;23.40;92.00;;;;;;4989319;28;20026;-58
2022/06/12 13:29:47;;;;;;;5.00;1.75;;;22.50;94.30;;;;;;4990404;28;20383;-58
2022/06/12 13:32:39;;;;;;;9.73;2.35;;;23.00;95.20;;;;;;4988732;28;20578;-58
2022/06/12 13:35:17;;;;;;;9.13;1.80;;;23.30;93.70;;;;;;4982242;28;20060;-58
2022/06/12 13:37:46;;;;;;;13.73;3.17;;;23.40;92.40;;;;;;4987977;28;20026;-58